Kezdőlap
METAR-TAF:

METAR-TAF

Repülőterek :

Akron, Colorado, Amerikai Egyesült Államok

földrajzi szélesség: 40-10-28N, földrajzi hosszúság: 103-12-52W, magasság: 1431 m

Jelenlegi meteorológiai megfigyelések

A jelentés 44 perccel ezelõtt készült, 02:53 UTC
Északi szél 8 kt
Hőmérséklet 26°C
Páratartalom 32%
Légköri nyomás 1016 hPa
Látótávolság: 16.1 km
Derült ég

METAR: KAKO 130253Z AUTO 01008KT 10SM CLR 26/08 A3001 RMK AO2 RAB23E33 SLP092 P0000 60000 T02610083 53020

Idő: 21:37 (03:37 UTC)


TAF: hiányzik

Meteorológiai megfigyelések és előrejelzések több, mint 4000 repülőtéren (METAR és TAF jelentéseket).

A térképen piros és sárga pontok jelzik az elérhető meteorológiai állomásokat.

Mozgassa az egeret a pont fölött, hogy megjelenjen az állomás neve.

Azután kattintson az időjárási megfigyelések és előrejelzések megtekintéséhez.

A térkép megváltoztatása: kattintson a fekete keresztel jelölt zöld gombra ráközelítéshez, a vonallal jelölt zöld gombra távolításhoz, vagy a zöld nyilakra a szomszédos térképek eléréséhez.


METAR-TAF: